Time;durP1;ratioP1;P1;durP2;ratioP2;P2;SDS_P1;SDS_P2;PMS_P1;PMS_P2;Temp;Humidity;BMP_temperature;BMP_pressure;BME280_temperature;BME280_humidity;BME280_pressure;Samples;Min_cycle;Max_cycle;Signal;HPM_P1;HPM_P2
2023/12/30 00:01:41;;;;;;;3.80;1.70;;;;;;;18.81;57.70;100250.53;4990329;28;20202;-59
2023/12/30 00:04:07;;;;;;;4.43;1.73;;;;;;;18.81;58.15;100247.69;4985907;28;20214;-61
2023/12/30 00:06:34;;;;;;;2.70;1.27;;;;;;;18.83;57.78;100260.41;4971468;28;20517;-60
2023/12/30 00:08:59;;;;;;;3.40;1.80;;;;;;;18.84;57.35;100270.63;4977968;28;20557;-58
2023/12/30 00:11:25;;;;;;;5.20;1.73;;;;;;;18.82;57.82;100273.00;4978088;28;20467;-53
2023/12/30 00:13:50;;;;;;;4.83;1.53;;;;;;;18.81;58.14;100276.28;4990477;28;20197;-53
2023/12/30 00:16:15;;;;;;;2.30;1.23;;;;;;;18.80;57.97;100278.31;4983342;28;20214;-53
2023/12/30 00:18:41;;;;;;;3.00;1.67;;;;;;;18.83;57.72;100273.84;4970599;28;20202;-53
2023/12/30 00:21:06;;;;;;;4.27;1.60;;;;;;;18.85;57.48;100282.88;4983675;28;20209;-53
2023/12/30 00:23:32;;;;;;;4.13;1.50;;;;;;;18.82;57.74;100277.94;4989323;28;20678;-53
2023/12/30 00:25:57;;;;;;;5.37;1.83;;;;;;;18.81;57.97;100279.94;4977259;28;20213;-53
2023/12/30 00:28:23;;;;;;;4.33;1.73;;;;;;;18.80;57.86;100281.16;4978020;28;20204;-53
2023/12/30 00:30:48;;;;;;;5.57;1.60;;;;;;;18.82;57.73;100287.31;4987115;28;20341;-53
2023/12/30 00:33:14;;;;;;;2.40;1.27;;;;;;;18.83;57.70;100291.84;5008550;28;20213;-53
2023/12/30 00:35:40;;;;;;;6.00;1.63;;;;;;;18.81;57.73;100297.13;5009382;28;20201;-53
2023/12/30 00:38:05;;;;;;;5.83;1.30;;;;;;;18.79;57.79;100298.69;5009441;28;20228;-53
2023/12/30 00:40:31;;;;;;;5.17;1.93;;;;;;;18.80;58.14;100298.31;4992786;28;20692;-53
2023/12/30 00:42:56;;;;;;;2.93;1.20;;;;;;;18.81;57.90;100293.44;4970705;28;20202;-53
2023/12/30 00:45:21;;;;;;;4.97;1.80;;;;;;;18.80;58.05;100292.59;4952988;28;20233;-53
2023/12/30 00:47:47;;;;;;;4.00;1.33;;;;;;;18.78;58.09;100297.06;4970426;28;20210;-53
2023/12/30 00:50:13;;;;;;;2.97;1.60;;;;;;;18.80;58.08;100297.50;4972663;28;20285;-53
2023/12/30 00:52:38;;;;;;;4.53;1.40;;;;;;;18.81;57.84;100305.69;4976179;28;20305;-53
2023/12/30 00:55:04;;;;;;;6.63;1.60;;;;;;;18.78;57.99;100308.50;4984676;28;20218;-52
2023/12/30 00:57:29;;;;;;;4.03;1.30;;;;;;;18.77;58.23;100304.81;4960631;28;20276;-53
2023/12/30 00:59:55;;;;;;;3.23;1.50;;;;;;;18.78;57.95;100309.34;4989551;28;20209;-53
2023/12/30 01:02:20;;;;;;;3.77;1.57;;;;;;;18.77;58.46;100316.25;4956449;28;20202;-53
2023/12/30 01:04:46;;;;;;;4.00;1.50;;;;;;;18.79;58.16;100319.56;4968981;28;20513;-52
2023/12/30 01:07:11;;;;;;;6.53;2.00;;;;;;;18.80;57.91;100308.94;4969351;28;20621;-53
2023/12/30 01:09:37;;;;;;;5.00;1.63;;;;;;;18.78;58.13;100319.94;4953214;28;20221;-53
2023/12/30 01:12:02;;;;;;;4.50;1.40;;;;;;;18.77;58.09;100327.69;4985920;28;20213;-53
2023/12/30 01:14:28;;;;;;;4.23;1.40;;;;;;;18.78;58.05;100320.78;4987894;28;20240;-53
2023/12/30 01:16:54;;;;;;;4.30;1.70;;;;;;;18.76;57.81;100319.50;4983183;28;20213;-53
2023/12/30 01:19:20;;;;;;;3.20;1.50;;;;;;;18.78;57.86;100323.63;4987865;28;20459;-52
2023/12/30 01:21:45;;;;;;;4.93;1.50;;;;;;;18.76;58.45;100322.38;4985426;28;20240;-58
2023/12/30 01:24:10;;;;;;;5.00;1.73;;;;;;;18.75;58.05;100327.25;4968669;28;20225;-59
2023/12/30 01:26:39;;;;;;;3.53;1.50;;;;;;;18.77;58.14;100326.88;4986047;28;20267;-60
2023/12/30 01:29:04;;;;;;;3.87;1.70;;;;;;;18.73;58.04;100321.09;4985721;28;20695;-59
2023/12/30 01:31:30;;;;;;;5.63;1.53;;;;;;;18.76;58.21;100328.09;4990155;28;20473;-60
2023/12/30 01:33:55;;;;;;;2.97;1.30;;;;;;;18.77;57.72;100329.72;4989517;28;20225;-60
2023/12/30 01:36:20;;;;;;;3.33;1.87;;;;;;;18.74;58.44;100334.19;4989079;28;20204;-57
2023/12/30 01:38:46;;;;;;;7.60;1.40;;;;;;;18.77;58.30;100321.16;4985654;28;20205;-60
2023/12/30 01:41:11;;;;;;;3.00;1.40;;;;;;;18.75;58.02;100326.41;4971572;28;20273;-59
2023/12/30 01:43:37;;;;;;;5.17;1.47;;;;;;;18.76;57.98;100331.75;4989189;28;20213;-59
2023/12/30 01:46:07;;;;;;;3.63;1.17;;;;;;;18.74;57.98;100328.47;4985657;28;20213;-60
2023/12/30 01:48:33;;;;;;;3.13;1.40;;;;;;;18.75;58.20;100335.84;4989140;28;20496;-59
2023/12/30 01:50:58;;;;;;;3.83;1.80;;;;;;;18.75;57.93;100335.00;4988977;28;20519;-60
2023/12/30 01:53:24;;;;;;;3.20;1.47;;;;;;;18.75;57.86;100357.88;4971787;28;20225;-60
2023/12/30 01:55:50;;;;;;;2.67;1.47;;;;;;;18.72;58.25;100353.75;4981086;28;20565;-60
2023/12/30 01:58:16;;;;;;;2.30;1.30;;;;;;;18.72;57.82;100361.50;4986480;28;20552;-60
2023/12/30 02:00:42;;;;;;;3.70;1.60;;;;;;;18.72;58.17;100362.31;4986521;28;20217;-53
2023/12/30 02:03:07;;;;;;;2.40;1.20;;;;;;;18.75;57.89;100364.44;4986837;28;20212;-53
2023/12/30 02:05:33;;;;;;;4.23;1.50;;;;;;;18.71;58.26;100372.13;4988807;28;20241;-53
2023/12/30 02:07:59;;;;;;;2.70;1.23;;;;;;;18.72;57.99;100373.75;4988502;28;20237;-53
2023/12/30 02:10:24;;;;;;;2.63;1.20;;;;;;;18.72;58.28;100370.91;4987155;28;20202;-53
2023/12/30 02:12:49;;;;;;;4.90;1.73;;;;;;;18.72;58.13;100368.03;4987899;28;20468;-53
2023/12/30 02:15:17;;;;;;;2.73;1.40;;;;;;;18.71;57.92;100374.97;4987616;28;20632;-54
2023/12/30 02:17:43;;;;;;;3.80;1.83;;;;;;;18.72;58.05;100375.81;4986495;28;20229;-53
2023/12/30 02:20:09;;;;;;;2.63;1.30;;;;;;;18.70;58.06;100375.34;4984870;28;20457;-53
2023/12/30 02:22:35;;;;;;;3.10;1.40;;;;;;;18.70;57.99;100378.22;4986664;28;20449;-53
2023/12/30 02:25:01;;;;;;;2.57;1.30;;;;;;;18.73;57.88;100377.47;4989712;28;20217;-53
2023/12/30 02:27:27;;;;;;;3.30;1.47;;;;;;;18.70;58.10;100372.47;4991747;28;20209;-52
2023/12/30 02:29:52;;;;;;;4.13;1.57;;;;;;;18.70;57.97;100375.34;4983367;28;20468;-53
2023/12/30 02:32:17;;;;;;;3.07;1.43;;;;;;;18.68;58.26;100378.63;4985908;28;20212;-53
2023/12/30 02:34:44;;;;;;;3.90;1.40;;;;;;;18.69;58.50;100376.56;4955512;28;20237;-53
2023/12/30 02:37:10;;;;;;;2.80;1.27;;;;;;;18.68;58.10;100386.34;4989122;28;20213;-53
2023/12/30 02:39:35;;;;;;;2.67;1.50;;;;;;;18.69;58.06;100388.00;4974955;28;20442;-53
2023/12/30 02:42:01;;;;;;;3.30;1.30;;;;;;;18.71;58.09;100391.31;4972755;28;20209;-53
2023/12/30 02:44:26;;;;;;;2.30;1.20;;;;;;;18.69;58.26;100388.84;4974198;28;20210;-53
2023/12/30 02:46:51;;;;;;;4.60;1.43;;;;;;;18.68;58.04;100386.34;4975433;28;20216;-53
2023/12/30 02:49:18;;;;;;;4.33;1.57;;;;;;;18.66;58.26;100395.31;4987886;28;20209;-53
2023/12/30 02:51:44;;;;;;;3.20;1.20;;;;;;;18.69;58.21;100394.56;4972463;28;20258;-53
2023/12/30 02:54:09;;;;;;;3.20;1.20;;;;;;;18.70;57.86;100396.22;4973209;28;20453;-53
2023/12/30 02:56:35;;;;;;;4.70;1.00;;;;;;;18.68;57.95;100395.78;4990656;28;20217;-53
2023/12/30 02:59:01;;;;;;;2.43;1.20;;;;;;;18.70;57.95;100401.94;4974268;28;20244;-53
2023/12/30 03:01:28;;;;;;;2.33;1.27;;;;;;;18.65;58.50;100402.25;4972352;28;20231;-53
2023/12/30 03:03:55;;;;;;;2.50;1.10;;;;;;;18.66;58.26;100405.94;4987908;28;20460;-53
2023/12/30 03:06:21;;;;;;;2.50;1.27;;;;;;;18.68;58.27;100404.34;4969995;28;20481;-53
2023/12/30 03:08:47;;;;;;;5.00;1.40;;;;;;;18.65;58.40;100398.53;4969673;28;20465;-53
2023/12/30 03:11:12;;;;;;;2.53;1.00;;;;;;;18.64;58.20;100396.88;4984838;28;20212;-53
2023/12/30 03:13:38;;;;;;;2.10;0.93;;;;;;;18.65;58.40;100395.69;4989359;28;20460;-59
2023/12/30 03:16:04;;;;;;;5.00;1.30;;;;;;;18.64;58.14;100394.03;4980454;28;20209;-60
2023/12/30 03:18:30;;;;;;;2.97;1.50;;;;;;;18.64;58.45;100386.28;4970460;28;20246;-59
2023/12/30 03:20:55;;;;;;;2.73;1.37;;;;;;;18.65;58.24;100393.66;4976551;28;20464;-58
2023/12/30 03:23:21;;;;;;;2.37;1.20;;;;;;;18.63;58.20;100389.53;4990071;28;20193;-59
2023/12/30 03:25:46;;;;;;;2.50;1.40;;;;;;;18.63;58.10;100384.66;4984203;28;20206;-57
2023/12/30 03:28:11;;;;;;;2.27;1.20;;;;;;;18.62;58.31;100385.03;4982169;28;20317;-58
2023/12/30 03:30:37;;;;;;;2.27;1.20;;;;;;;18.63;58.43;100383.81;4989215;28;20204;-57
2023/12/30 03:33:03;;;;;;;2.60;1.40;;;;;;;18.63;58.28;100383.81;4990606;28;20205;-58
2023/12/30 03:35:28;;;;;;;2.10;1.10;;;;;;;18.61;58.16;100375.59;4982001;28;20312;-62
2023/12/30 03:37:53;;;;;;;2.53;1.27;;;;;;;18.60;58.50;100376.81;4971975;28;20209;-57
2023/12/30 03:40:19;;;;;;;2.30;1.10;;;;;;;18.61;58.14;100375.59;4955196;28;20201;-58
2023/12/30 03:42:45;;;;;;;1.93;1.10;;;;;;;18.63;58.13;100378.94;4972623;28;20215;-59
2023/12/30 03:45:10;;;;;;;2.97;1.43;;;;;;;18.61;58.46;100381.31;4971599;28;20213;-60
2023/12/30 03:47:35;;;;;;;3.10;1.33;;;;;;;18.61;58.36;100375.59;4971472;28;20209;-61
2023/12/30 03:50:01;;;;;;;2.73;1.30;;;;;;;18.60;58.55;100379.69;4973980;28;20208;-60
2023/12/30 03:52:28;;;;;;;1.80;0.90;;;;;;;18.59;58.32;100365.75;4983229;28;20214;-58
2023/12/30 03:54:55;;;;;;;3.13;1.50;;;;;;;18.60;58.28;100373.13;4988788;28;20221;-60
2023/12/30 03:57:21;;;;;;;2.47;1.50;;;;;;;18.59;58.51;100358.00;4974605;28;21131;-60
2023/12/30 03:59:46;;;;;;;3.00;1.30;;;;;;;18.60;58.26;100361.69;4983377;28;20445;-59
2023/12/30 04:02:12;;;;;;;3.03;1.33;;;;;;;18.58;58.61;100359.22;4982780;28;20202;-60
2023/12/30 04:04:38;;;;;;;2.50;1.23;;;;;;;18.59;58.56;100360.03;4971000;28;20253;-59
2023/12/30 04:07:03;;;;;;;2.10;1.10;;;;;;;18.60;58.40;100376.81;4988990;28;20233;-59
2023/12/30 04:09:29;;;;;;;1.93;1.07;;;;;;;18.59;58.26;100366.59;4971862;28;20201;-60
2023/12/30 04:11:54;;;;;;;2.60;1.20;;;;;;;18.59;58.39;100374.31;4979516;28;20209;-59
2023/12/30 04:14:20;;;;;;;2.60;1.23;;;;;;;18.61;58.38;100386.22;4984885;28;20208;-59
2023/12/30 04:16:45;;;;;;;3.33;1.00;;;;;;;18.59;58.30;100371.47;5008936;28;20196;-60
2023/12/30 04:19:11;;;;;;;2.70;1.20;;;;;;;18.58;58.48;100382.09;4978052;28;20214;-60
2023/12/30 04:21:36;;;;;;;2.33;1.13;;;;;;;18.57;58.20;100373.91;4975768;28;20202;-53
2023/12/30 04:24:02;;;;;;;3.03;1.30;;;;;;;18.57;58.57;100374.69;4985129;28;20198;-53
2023/12/30 04:26:27;;;;;;;2.40;1.30;;;;;;;18.55;58.30;100377.13;4987011;28;20743;-53
2023/12/30 04:28:53;;;;;;;1.50;0.87;;;;;;;18.55;58.25;100371.41;4975941;28;20457;-53
2023/12/30 04:31:18;;;;;;;2.67;1.10;;;;;;;18.56;58.69;100373.06;4977443;28;20208;-52
2023/12/30 04:33:44;;;;;;;1.97;1.27;;;;;;;18.57;58.57;100386.13;4979424;28;20213;-53
2023/12/30 04:36:09;;;;;;;2.40;1.07;;;;;;;18.56;58.42;100373.06;4970654;28;20558;-53
2023/12/30 04:38:34;;;;;;;2.50;1.10;;;;;;;18.56;58.23;100378.78;4971017;28;20201;-53
2023/12/30 04:41:00;;;;;;;1.67;0.90;;;;;;;18.57;58.41;100393.91;4970998;28;20205;-53
2023/12/30 04:43:25;;;;;;;3.57;1.20;;;;;;;18.57;58.48;100393.91;4970306;28;20217;-53
2023/12/30 04:45:51;;;;;;;1.90;1.10;;;;;;;18.56;58.46;100395.94;4982074;28;20197;-53
2023/12/30 04:48:16;;;;;;;2.47;1.23;;;;;;;18.56;58.44;100395.13;4989838;28;20197;-53
2023/12/30 04:50:42;;;;;;;2.60;1.10;;;;;;;18.56;58.15;100404.50;4968833;28;20245;-53
2023/12/30 04:53:07;;;;;;;2.40;1.13;;;;;;;18.57;58.18;100408.19;4973384;28;20217;-53
2023/12/30 04:55:33;;;;;;;2.37;1.30;;;;;;;18.56;58.54;100401.66;4984670;28;20202;-52
2023/12/30 04:57:59;;;;;;;2.33;1.30;;;;;;;18.55;58.54;100408.56;4989377;28;20213;-53
2023/12/30 05:00:24;;;;;;;2.23;1.00;;;;;;;18.54;58.40;100404.06;4963103;28;20210;-53
2023/12/30 05:02:49;;;;;;;1.80;1.10;;;;;;;18.54;58.46;100414.66;4971436;28;20190;-53
2023/12/30 05:05:15;;;;;;;2.93;1.30;;;;;;;18.56;58.27;100407.38;4968702;28;20197;-53
2023/12/30 05:07:40;;;;;;;2.47;1.00;;;;;;;18.56;58.34;100404.50;4968239;28;20249;-53
2023/12/30 05:10:08;;;;;;;1.90;1.07;;;;;;;18.56;58.59;100401.66;4968289;28;20649;-53
2023/12/30 05:12:34;;;;;;;2.93;1.37;;;;;;;18.55;58.10;100405.72;4970307;28;20681;-53
2023/12/30 05:14:59;;;;;;;2.87;0.90;;;;;;;18.54;58.41;100404.06;4991920;28;20455;-53
2023/12/30 05:17:25;;;;;;;89.30;6.93;;;;;;;18.55;58.47;100411.44;4988150;28;20201;-53
2023/12/30 05:19:51;;;;;;;2.93;1.27;;;;;;;18.56;58.22;100409.41;4989307;28;20668;-53
2023/12/30 05:22:16;;;;;;;3.40;1.03;;;;;;;18.56;58.20;100406.56;4975238;28;20450;-53
2023/12/30 05:24:41;;;;;;;2.20;1.20;;;;;;;18.56;58.30;100409.41;4954519;28;20273;-53
2023/12/30 05:27:07;;;;;;;1.90;1.03;;;;;;;18.57;58.14;100411.88;4983925;28;20202;-53
2023/12/30 05:29:33;;;;;;;2.40;1.07;;;;;;;18.55;58.36;100414.28;4989411;28;20236;-52
2023/12/30 05:31:58;;;;;;;2.00;1.00;;;;;;;18.56;58.31;100412.28;4990422;28;20280;-53
2023/12/30 05:34:24;;;;;;;2.00;1.23;;;;;;;18.57;58.13;100408.19;4989275;28;20197;-53
2023/12/30 05:36:49;;;;;;;2.10;1.40;;;;;;;18.56;58.38;100410.22;4979587;28;20685;-53
2023/12/30 05:39:15;;;;;;;2.17;1.17;;;;;;;18.56;58.05;100407.38;4969765;28;20198;-52
2023/12/30 05:41:40;;;;;;;2.47;0.97;;;;;;;18.56;58.71;100403.69;4970543;28;20677;-53
2023/12/30 05:44:06;;;;;;;1.90;0.97;;;;;;;18.55;58.62;100397.13;4969897;28;20205;-53
2023/12/30 05:46:31;;;;;;;2.50;1.20;;;;;;;18.56;58.27;100395.94;4969694;28;20198;-53
2023/12/30 05:48:57;;;;;;;3.60;1.30;;;;;;;18.56;58.29;100406.56;4980240;28;20205;-53
2023/12/30 05:51:22;;;;;;;3.47;1.10;;;;;;;18.56;58.62;100400.84;4988869;28;20197;-53
2023/12/30 05:53:48;;;;;;;2.40;1.20;;;;;;;18.54;58.36;100398.34;4990965;28;20209;-53
2023/12/30 05:56:23;;;;;;;2.03;1.13;;;;;;;18.55;58.32;100402.84;4992169;28;20564;-54
2023/12/30 05:58:49;;;;;;;3.00;1.10;;;;;;;18.54;58.23;100406.94;4989276;28;20677;-53
2023/12/30 06:01:15;;;;;;;2.70;1.10;;;;;;;18.56;58.43;100404.50;4989758;28;20799;-54
2023/12/30 06:03:40;;;;;;;3.90;0.90;;;;;;;18.55;58.24;100404.88;4991449;28;20531;-53
2023/12/30 06:06:06;;;;;;;2.10;1.20;;;;;;;18.57;58.44;100405.34;4991672;28;20252;-53
2023/12/30 06:08:32;;;;;;;2.40;1.13;;;;;;;18.56;58.32;100413.09;4991393;28;20200;-53
2023/12/30 06:10:58;;;;;;;2.13;1.03;;;;;;;18.56;58.39;100412.28;4986294;28;20967;-53
2023/12/30 06:13:23;;;;;;;1.60;0.90;;;;;;;18.59;58.48;100415.19;4992597;28;20528;-53
2023/12/30 06:15:52;;;;;;;4.53;1.50;;;;;;;18.59;58.56;100422.94;4988674;28;20319;-53
2023/12/30 06:18:18;;;;;;;2.27;1.27;;;;;;;18.57;58.28;100413.91;4973051;28;20202;-53
2023/12/30 06:20:46;;;;;;;2.57;1.30;;;;;;;18.57;58.43;100413.91;4973430;28;20441;-52
2023/12/30 06:23:15;;;;;;;1.93;0.90;;;;;;;18.58;58.51;100425.00;4975022;28;20195;-52
2023/12/30 06:25:41;;;;;;;1.70;0.80;;;;;;;18.57;58.30;100420.44;4983085;28;20476;-52
2023/12/30 06:28:06;;;;;;;2.37;1.23;;;;;;;18.59;58.68;100429.50;4986435;28;20544;-53
2023/12/30 06:30:32;;;;;;;2.20;1.20;;;;;;;18.58;58.32;100427.84;4983012;28;20522;-53
2023/12/30 06:32:59;;;;;;;2.27;1.27;;;;;;;18.58;58.15;100433.56;4993390;28;20296;-53
2023/12/30 06:35:24;;;;;;;2.40;1.30;;;;;;;18.57;58.75;100439.66;4992276;28;20212;-53
2023/12/30 06:37:50;;;;;;;1.97;1.07;;;;;;;18.55;58.67;100445.75;4981431;28;20461;-52
2023/12/30 06:40:15;;;;;;;2.83;1.20;;;;;;;18.56;58.23;100453.09;4972702;28;20593;-53
2023/12/30 06:42:44;;;;;;;3.70;0.90;;;;;;;18.60;58.21;100465.44;4987724;28;20244;-53
2023/12/30 06:45:10;;;;;;;1.73;0.90;;;;;;;18.59;58.34;100458.09;4992306;28;20205;-53
2023/12/30 06:47:36;;;;;;;2.27;1.30;;;;;;;18.59;58.24;100458.09;4991630;28;20444;-53
2023/12/30 06:50:01;;;;;;;1.80;0.90;;;;;;;18.59;58.16;100466.66;4988267;28;20310;-53
2023/12/30 06:52:27;;;;;;;3.57;1.30;;;;;;;18.58;58.38;100465.03;4990320;28;20213;-54
2023/12/30 06:54:53;;;;;;;1.50;0.83;;;;;;;18.58;58.36;100465.03;4986906;28;20201;-52
2023/12/30 06:57:19;;;;;;;2.87;1.07;;;;;;;18.57;58.90;100477.63;4970954;28;20202;-53
2023/12/30 06:59:44;;;;;;;1.80;0.73;;;;;;;18.59;58.38;100474.41;4970929;28;20437;-53
2023/12/30 07:02:10;;;;;;;6.53;1.23;;;;;;;18.60;58.34;100487.50;4983689;28;20313;-53
2023/12/30 07:04:35;;;;;;;1.97;1.07;;;;;;;18.62;58.08;100485.91;4989592;28;20197;-53
2023/12/30 07:07:00;;;;;;;2.17;1.20;;;;;;;18.59;58.69;100489.53;4985940;28;20981;-53
2023/12/30 07:09:26;;;;;;;2.10;1.03;;;;;;;18.62;58.09;100487.97;4989390;28;20206;-52
2023/12/30 07:11:51;;;;;;;2.27;1.00;;;;;;;18.60;58.32;100484.63;4991561;28;20213;-53
2023/12/30 07:14:17;;;;;;;2.20;1.10;;;;;;;18.60;58.30;100488.31;4987343;28;20212;-53
2023/12/30 07:16:42;;;;;;;2.57;1.00;;;;;;;18.60;58.58;100484.63;5011082;28;20201;-52
2023/12/30 07:19:08;;;;;;;3.23;1.20;;;;;;;18.59;58.57;100488.69;5009360;28;20730;-52
2023/12/30 07:21:33;;;;;;;2.70;0.93;;;;;;;18.61;58.17;100486.31;4989723;28;20315;-53
2023/12/30 07:23:58;;;;;;;1.90;1.10;;;;;;;18.60;58.61;100488.31;4974239;28;20202;-53
2023/12/30 07:26:24;;;;;;;2.20;1.10;;;;;;;18.61;58.07;100487.13;4987839;28;20202;-53
2023/12/30 07:28:49;;;;;;;2.00;0.90;;;;;;;18.61;57.97;100487.13;4990890;28;20247;-53
2023/12/30 07:31:15;;;;;;;2.43;1.20;;;;;;;18.59;58.31;100485.84;4988996;28;20267;-53
2023/12/30 07:33:41;;;;;;;2.80;1.20;;;;;;;18.60;58.19;100493.22;4971297;28;20890;-53
2023/12/30 07:36:07;;;;;;;3.63;1.30;;;;;;;18.62;58.04;100485.91;4971270;28;20201;-53
2023/12/30 07:38:33;;;;;;;1.60;0.80;;;;;;;18.60;58.61;100487.50;4971441;28;20828;-53
2023/12/30 07:40:58;;;;;;;2.53;1.07;;;;;;;18.60;58.39;100494.06;4973384;28;20489;-53
2023/12/30 07:43:24;;;;;;;2.60;1.10;;;;;;;18.60;58.25;100493.22;4970665;28;20741;-53
2023/12/30 07:45:49;;;;;;;2.13;1.10;;;;;;;18.61;58.44;100489.16;4971315;28;20245;-53
2023/12/30 07:48:15;;;;;;;3.00;1.00;;;;;;;18.59;58.26;100478.09;4975185;28;20206;-53
2023/12/30 07:50:41;;;;;;;2.30;1.20;;;;;;;18.61;58.48;100487.13;4989702;28;20201;-53
2023/12/30 07:53:06;;;;;;;1.70;0.93;;;;;;;18.61;58.40;100487.13;4989359;28;20205;-59
2023/12/30 07:55:32;;;;;;;2.37;1.10;;;;;;;18.60;58.49;100494.06;4989541;28;20217;-59
2023/12/30 07:57:57;;;;;;;2.10;1.20;;;;;;;18.61;58.28;100492.03;4980321;28;20859;-59
2023/12/30 08:00:22;;;;;;;2.13;0.90;;;;;;;18.61;58.34;100472.81;4973702;28;20202;-60
2023/12/30 08:02:48;;;;;;;1.73;0.90;;;;;;;18.61;58.29;100492.03;4985757;28;20547;-60
2023/12/30 08:05:13;;;;;;;2.10;1.40;;;;;;;18.62;58.23;100488.78;4971568;28;20626;-59
2023/12/30 08:07:39;;;;;;;2.07;1.10;;;;;;;18.64;58.14;100492.09;4987209;28;20233;-60
2023/12/30 08:10:05;;;;;;;2.53;1.00;;;;;;;18.65;58.19;100496.59;4978247;28;20418;-59
2023/12/30 08:12:30;;;;;;;1.90;0.97;;;;;;;18.65;58.13;100498.63;4991056;28;20297;-60
2023/12/30 08:14:56;;;;;;;1.90;0.90;;;;;;;18.62;58.57;100494.47;4999438;28;20236;-60
2023/12/30 08:17:21;;;;;;;3.67;1.10;;;;;;;18.63;58.34;100496.16;4990099;28;20260;-59
2023/12/30 08:19:46;;;;;;;2.77;0.90;;;;;;;18.61;58.54;100498.56;4986949;28;20201;-60
2023/12/30 08:22:12;;;;;;;2.60;1.20;;;;;;;18.65;58.25;100505.19;4988340;28;20229;-60
2023/12/30 08:24:38;;;;;;;1.60;1.00;;;;;;;18.65;58.16;100507.19;4990741;28;20299;-60
2023/12/30 08:27:03;;;;;;;2.30;1.10;;;;;;;18.64;57.88;100500.69;4977385;28;20751;-58
2023/12/30 08:29:29;;;;;;;3.10;0.93;;;;;;;18.60;58.46;100505.50;4971488;28;20450;-60
2023/12/30 08:31:54;;;;;;;2.80;0.93;;;;;;;18.63;58.15;100509.63;4978677;28;20206;-59
2023/12/30 08:34:21;;;;;;;4.20;1.10;;;;;;;18.64;58.35;100514.97;4987458;28;20260;-59
2023/12/30 08:36:46;;;;;;;2.17;1.03;;;;;;;18.63;58.27;100499.03;4990735;28;20201;-60
2023/12/30 08:39:12;;;;;;;2.17;0.90;;;;;;;18.63;58.47;100504.75;4975567;28;20873;-58
2023/12/30 08:41:37;;;;;;;1.90;1.20;;;;;;;18.64;58.11;100500.69;4985679;28;20552;-59
2023/12/30 08:44:03;;;;;;;3.40;1.10;;;;;;;18.65;58.17;100502.31;4969916;28;20295;-59
2023/12/30 08:46:28;;;;;;;2.00;1.00;;;;;;;18.63;58.43;100499.03;4970340;28;20249;-59
2023/12/30 08:48:54;;;;;;;2.10;1.00;;;;;;;18.64;58.28;100497.81;4986159;28;20205;-59
2023/12/30 08:51:19;;;;;;;2.20;1.10;;;;;;;18.67;58.18;100505.63;4987975;28;20204;-59
2023/12/30 08:53:44;;;;;;;2.23;1.00;;;;;;;18.68;58.13;100500.75;4978194;28;20566;-59
2023/12/30 08:56:10;;;;;;;1.73;1.07;;;;;;;18.66;58.18;100503.16;4983908;28;20205;-59
2023/12/30 08:58:35;;;;;;;1.80;1.00;;;;;;;18.66;58.10;100500.31;4988405;28;20229;-58
2023/12/30 09:01:01;;;;;;;2.27;1.20;;;;;;;18.64;58.39;100499.84;4976300;28;20664;-60
2023/12/30 09:03:26;;;;;;;2.50;1.30;;;;;;;18.67;58.11;100499.09;4989431;28;20197;-52
2023/12/30 09:05:52;;;;;;;2.67;0.97;;;;;;;18.67;58.43;100494.19;4989377;28;20201;-53
2023/12/30 09:08:18;;;;;;;1.80;0.90;;;;;;;18.65;58.27;100496.59;4979730;28;20617;-53
2023/12/30 09:10:44;;;;;;;2.80;0.80;;;;;;;18.69;58.17;100494.66;4989064;28;20208;-53
2023/12/30 09:13:10;;;;;;;2.00;0.90;;;;;;;18.69;58.26;100502.38;4965718;28;20888;-53
2023/12/30 09:15:36;;;;;;;2.50;1.00;;;;;;;18.66;58.40;100503.97;5002962;28;20262;-52
2023/12/30 09:18:02;;;;;;;1.97;1.10;;;;;;;18.66;58.10;100498.25;5008928;28;20538;-53
2023/12/30 09:20:27;;;;;;;3.30;0.80;;;;;;;18.67;58.26;100494.19;4993147;28;20212;-52
2023/12/30 09:22:53;;;;;;;2.00;1.10;;;;;;;18.72;58.00;100507.38;4977957;28;20209;-52
2023/12/30 09:25:18;;;;;;;2.80;1.10;;;;;;;18.69;58.20;100494.66;4976906;28;20216;-52
2023/12/30 09:27:45;;;;;;;1.70;0.80;;;;;;;18.72;58.26;100499.59;4985914;28;20197;-53
2023/12/30 09:30:10;;;;;;;2.00;0.93;;;;;;;18.71;57.98;100505.72;4969929;28;20198;-53
2023/12/30 09:32:36;;;;;;;1.77;0.90;;;;;;;18.70;58.28;100510.59;4986298;28;20539;-53
2023/12/30 09:35:02;;;;;;;3.13;1.13;;;;;;;18.72;58.12;100511.03;4975363;28;20265;-51
2023/12/30 09:37:28;;;;;;;1.30;0.60;;;;;;;18.74;58.10;100511.50;4988467;28;20205;-52
2023/12/30 09:39:54;;;;;;;2.00;1.10;;;;;;;18.73;58.08;100507.00;4987273;28;20864;-52
2023/12/30 09:42:19;;;;;;;2.77;1.07;;;;;;;18.73;58.15;100506.16;4987768;28;20730;-52
2023/12/30 09:44:46;;;;;;;1.73;0.90;;;;;;;18.74;58.22;100517.22;4983713;28;20205;-51
2023/12/30 09:47:11;;;;;;;1.67;0.70;;;;;;;18.74;58.42;100516.38;4987957;28;20213;-52
2023/12/30 09:49:37;;;;;;;1.80;0.90;;;;;;;18.75;57.80;100518.03;4977692;28;20466;-52
2023/12/30 09:52:04;;;;;;;2.80;1.10;;;;;;;18.75;58.26;100521.75;4966648;28;20206;-53
2023/12/30 09:54:29;;;;;;;2.07;1.00;;;;;;;18.78;57.93;100511.56;4967649;28;20324;-52
2023/12/30 09:56:55;;;;;;;2.13;1.00;;;;;;;18.77;58.13;100516.44;4970592;28;20450;-52
2023/12/30 09:59:21;;;;;;;1.70;0.90;;;;;;;18.76;58.09;100511.94;4968481;28;20265;-53
2023/12/30 10:01:46;;;;;;;1.50;0.70;;;;;;;18.77;57.91;100518.50;4970893;28;20473;-52
2023/12/30 10:04:12;;;;;;;5.03;1.80;;;;;;;18.77;58.13;100513.59;4968963;28;20310;-52
2023/12/30 10:06:37;;;;;;;1.80;0.77;;;;;;;18.76;58.21;100514.00;4970985;28;20622;-52
2023/12/30 10:09:03;;;;;;;1.70;0.80;;;;;;;18.76;58.11;100517.66;4969574;28;20210;-52
2023/12/30 10:11:28;;;;;;;2.10;1.00;;;;;;;18.76;58.09;100509.09;4982860;28;20209;-60
2023/12/30 10:13:54;;;;;;;1.93;1.00;;;;;;;18.76;57.96;100509.09;4965086;28;20228;-59
2023/12/30 10:16:19;;;;;;;2.07;0.90;;;;;;;18.75;58.17;100503.75;4990258;28;20212;-59
2023/12/30 10:18:45;;;;;;;1.90;0.70;;;;;;;18.73;58.06;100506.16;5008241;28;20204;-59
2023/12/30 10:21:10;;;;;;;2.40;1.10;;;;;;;18.73;58.15;100501.28;4986077;28;20210;-60
2023/12/30 10:23:37;;;;;;;1.73;0.80;;;;;;;18.75;57.98;100506.59;4988161;28;20201;-59
2023/12/30 10:26:03;;;;;;;2.23;0.93;;;;;;;18.74;58.05;100499.22;4985854;28;20284;-59
2023/12/30 10:28:29;;;;;;;2.63;1.43;;;;;;;18.75;57.90;100500.88;4987385;28;20940;-59
2023/12/30 10:31:05;;;;;;;2.30;0.97;;;;;;;18.75;58.00;100496.00;4989262;28;20206;-59
2023/12/30 10:33:32;;;;;;;2.37;1.40;;;;;;;18.76;57.88;100502.56;4987179;28;20894;-57
2023/12/30 10:35:58;;;;;;;2.97;1.20;;;;;;;18.75;58.41;100498.84;4972376;28;20958;-59
2023/12/30 10:38:24;;;;;;;2.27;1.00;;;;;;;18.75;58.00;100496.00;4987665;28;20448;-59
2023/12/30 10:40:52;;;;;;;1.77;0.87;;;;;;;18.74;58.03;100500.06;4985529;28;20669;-59
2023/12/30 10:43:21;;;;;;;2.43;1.10;;;;;;;18.77;57.90;100501.34;4990884;28;20323;-58
2023/12/30 10:45:56;;;;;;;1.93;1.00;;;;;;;18.77;58.02;100504.19;4990908;28;20532;-59
2023/12/30 10:48:21;;;;;;;1.77;0.97;;;;;;;18.76;58.49;100503.38;4989514;28;20444;-58
2023/12/30 10:50:47;;;;;;;1.87;0.80;;;;;;;18.76;58.18;100502.56;4973715;28;20456;-58
2023/12/30 10:53:18;;;;;;;2.60;1.20;;;;;;;18.77;57.98;100504.19;4991368;28;20268;-60
2023/12/30 10:55:51;;;;;;;1.87;0.80;;;;;;;18.76;57.96;100503.38;4990953;28;20209;-57
2023/12/30 10:58:20;;;;;;;2.27;0.77;;;;;;;18.79;58.13;100499.75;4986067;28;20480;-58
2023/12/30 11:00:48;;;;;;;4.07;1.10;;;;;;;18.75;58.06;100490.28;4982635;28;20871;-60
2023/12/30 11:03:14;;;;;;;3.17;1.30;;;;;;;18.76;58.15;100497.66;4983421;28;20445;-59
2023/12/30 11:06:14;;;;;;;1.83;1.00;;;;;;;18.77;57.92;100490.72;4991443;28;20456;-58
2023/12/30 11:08:43;;;;;;;3.50;1.33;;;;;;;18.77;58.12;100498.47;4911102;28;20875;-57
2023/12/30 11:11:10;;;;;;;2.47;1.10;;;;;;;18.77;58.00;100487.84;4991060;28;20547;-59
2023/12/30 11:13:41;;;;;;;2.07;1.20;;;;;;;18.77;58.26;100482.13;4974202;28;20472;-58
2023/12/30 11:16:24;;;;;;;5.17;1.00;;;;;;;18.78;57.97;100482.97;5010148;28;20531;-59
2023/12/30 11:18:51;;;;;;;2.10;0.80;;;;;;;18.79;58.12;100479.75;4973979;28;21137;-57